sensor_id;sensor_type;location;lat;lon;timestamp;pressure;altitude;pressure_sealevel;temperature;humidity
35694;BME280;21812;55.536;37.664;2024-03-17T00:01:02;100036.75;;;1.43;59.25
35694;BME280;21812;55.536;37.664;2024-03-17T00:03:29;100052.66;;;1.42;58.89
35694;BME280;21812;55.536;37.664;2024-03-17T00:06:00;100048.50;;;1.39;59.14
35694;BME280;21812;55.536;37.664;2024-03-17T00:08:26;100059.97;;;1.38;59.28
35694;BME280;21812;55.536;37.664;2024-03-17T00:10:53;100038.44;;;1.33;59.57
35694;BME280;21812;55.536;37.664;2024-03-17T00:13:19;100048.09;;;1.44;59.55
35694;BME280;21812;55.536;37.664;2024-03-17T00:15:44;100042.25;;;1.40;59.21
35694;BME280;21812;55.536;37.664;2024-03-17T00:18:11;100042.00;;;1.43;58.98
35694;BME280;21812;55.536;37.664;2024-03-17T00:20:37;100043.75;;;1.54;58.93
35694;BME280;21812;55.536;37.664;2024-03-17T00:23:04;100044.63;;;1.54;58.63
35694;BME280;21812;55.536;37.664;2024-03-17T00:25:33;100037.69;;;1.42;58.98
35694;BME280;21812;55.536;37.664;2024-03-17T00:28:02;100041.06;;;1.33;59.61
35694;BME280;21812;55.536;37.664;2024-03-17T00:30:28;100037.03;;;1.17;59.67
35694;BME280;21812;55.536;37.664;2024-03-17T00:32:54;100033.09;;;1.12;60.27
35694;BME280;21812;55.536;37.664;2024-03-17T00:35:20;100035.13;;;1.08;60.73
35694;BME280;21812;55.536;37.664;2024-03-17T00:37:47;100040.84;;;1.13;60.41
35694;BME280;21812;55.536;37.664;2024-03-17T00:40:13;100032.34;;;1.21;60.51
35694;BME280;21812;55.536;37.664;2024-03-17T00:42:39;100026.28;;;1.21;59.73
35694;BME280;21812;55.536;37.664;2024-03-17T00:45:06;100023.16;;;1.15;59.81
35694;BME280;21812;55.536;37.664;2024-03-17T00:47:32;100020.53;;;1.15;59.58
35694;BME280;21812;55.536;37.664;2024-03-17T00:49:58;100025.31;;;1.10;59.57
35694;BME280;21812;55.536;37.664;2024-03-17T00:52:24;100027.38;;;0.95;60.06
35694;BME280;21812;55.536;37.664;2024-03-17T00:54:50;100030.63;;;0.88;60.81
35694;BME280;21812;55.536;37.664;2024-03-17T00:57:16;100032.75;;;0.83;61.42
35694;BME280;21812;55.536;37.664;2024-03-17T00:59:42;100028.31;;;0.83;61.19
35694;BME280;21812;55.536;37.664;2024-03-17T01:02:11;100029.91;;;0.86;61.44
35694;BME280;21812;55.536;37.664;2024-03-17T01:04:42;100032.75;;;0.83;61.51
35694;BME280;21812;55.536;37.664;2024-03-17T01:07:09;100028.22;;;0.85;61.64
35694;BME280;21812;55.536;37.664;2024-03-17T01:09:35;100027.28;;;0.86;61.61
35694;BME280;21812;55.536;37.664;2024-03-17T01:12:01;100022.00;;;0.86;61.62
35694;BME280;21812;55.536;37.664;2024-03-17T01:14:28;99973.00;;;0.62;61.26
35694;BME280;21812;55.536;37.664;2024-03-17T01:16:55;100022.72;;;0.76;61.56
35694;BME280;21812;55.536;37.664;2024-03-17T01:19:21;100004.31;;;0.65;61.61
35694;BME280;21812;55.536;37.664;2024-03-17T01:21:47;100012.94;;;0.67;61.66
35694;BME280;21812;55.536;37.664;2024-03-17T01:24:12;100012.53;;;0.61;61.75
35694;BME280;21812;55.536;37.664;2024-03-17T01:26:39;100005.25;;;0.53;61.86
35694;BME280;21812;55.536;37.664;2024-03-17T01:29:04;100000.59;;;0.45;61.79
35694;BME280;21812;55.536;37.664;2024-03-17T01:31:30;100012.69;;;0.48;61.65
35694;BME280;21812;55.536;37.664;2024-03-17T01:33:56;100004.44;;;0.52;62.23
35694;BME280;21812;55.536;37.664;2024-03-17T01:36:22;100002.41;;;0.45;61.72
35694;BME280;21812;55.536;37.664;2024-03-17T01:38:47;99998.94;;;0.55;62.10
35694;BME280;21812;55.536;37.664;2024-03-17T01:41:13;100006.13;;;0.53;62.33
35694;BME280;21812;55.536;37.664;2024-03-17T01:43:40;100004.56;;;0.62;62.36
35694;BME280;21812;55.536;37.664;2024-03-17T01:46:11;100002.03;;;0.72;62.37
35694;BME280;21812;55.536;37.664;2024-03-17T01:48:38;99996.31;;;0.67;61.84
35694;BME280;21812;55.536;37.664;2024-03-17T01:51:04;100005.16;;;0.66;61.53
35694;BME280;21812;55.536;37.664;2024-03-17T01:53:31;99994.53;;;0.56;61.91
35694;BME280;21812;55.536;37.664;2024-03-17T01:55:57;99999.88;;;0.54;62.10
35694;BME280;21812;55.536;37.664;2024-03-17T01:58:27;99999.19;;;0.52;62.24
35694;BME280;21812;55.536;37.664;2024-03-17T02:00:56;99986.84;;;0.42;62.03
35694;BME280;21812;55.536;37.664;2024-03-17T02:03:22;99990.56;;;0.39;62.07
35694;BME280;21812;55.536;37.664;2024-03-17T02:05:48;99998.34;;;0.41;62.38
35694;BME280;21812;55.536;37.664;2024-03-17T02:08:13;99986.84;;;0.30;62.46
35694;BME280;21812;55.536;37.664;2024-03-17T02:10:39;99983.28;;;0.31;62.68
35694;BME280;21812;55.536;37.664;2024-03-17T02:13:05;99981.84;;;0.38;63.00
35694;BME280;21812;55.536;37.664;2024-03-17T02:15:33;99973.25;;;0.36;61.84
35694;BME280;21812;55.536;37.664;2024-03-17T02:18:18;99970.50;;;0.38;61.63
35694;BME280;21812;55.536;37.664;2024-03-17T02:20:44;99976.81;;;0.35;61.70
35694;BME280;21812;55.536;37.664;2024-03-17T02:23:26;99972.28;;;0.26;62.36
35694;BME280;21812;55.536;37.664;2024-03-17T02:25:53;99984.94;;;0.21;62.52
35694;BME280;21812;55.536;37.664;2024-03-17T02:28:19;99982.66;;;0.16;62.76
35694;BME280;21812;55.536;37.664;2024-03-17T02:30:45;99970.22;;;0.07;62.70
35694;BME280;21812;55.536;37.664;2024-03-17T02:33:11;99970.81;;;-0.01;62.95
35694;BME280;21812;55.536;37.664;2024-03-17T02:35:37;99952.88;;;-0.07;63.19
35694;BME280;21812;55.536;37.664;2024-03-17T02:38:03;99964.03;;;0.08;63.02
35694;BME280;21812;55.536;37.664;2024-03-17T02:40:29;99972.53;;;0.23;63.30
35694;BME280;21812;55.536;37.664;2024-03-17T02:42:55;99965.00;;;0.41;62.46
35694;BME280;21812;55.536;37.664;2024-03-17T02:45:20;99961.66;;;0.39;61.84
35694;BME280;21812;55.536;37.664;2024-03-17T02:47:47;99962.50;;;0.39;61.98
35694;BME280;21812;55.536;37.664;2024-03-17T02:50:13;99965.84;;;0.42;62.18
35694;BME280;21812;55.536;37.664;2024-03-17T02:52:39;99958.09;;;0.40;62.13
35694;BME280;21812;55.536;37.664;2024-03-17T02:55:05;99960.59;;;0.42;62.13
35694;BME280;21812;55.536;37.664;2024-03-17T02:57:31;99963.47;;;0.50;61.92
35694;BME280;21812;55.536;37.664;2024-03-17T02:59:58;99963.22;;;0.53;61.48
35694;BME280;21812;55.536;37.664;2024-03-17T03:02:25;99955.94;;;0.45;61.49
35694;BME280;21812;55.536;37.664;2024-03-17T03:04:50;99957.25;;;0.39;61.79
35694;BME280;21812;55.536;37.664;2024-03-17T03:07:16;99946.72;;;0.28;62.03
35694;BME280;21812;55.536;37.664;2024-03-17T03:09:42;99960.00;;;0.27;62.28
35694;BME280;21812;55.536;37.664;2024-03-17T03:12:08;99960.81;;;0.16;62.17
35694;BME280;21812;55.536;37.664;2024-03-17T03:14:34;99942.41;;;0.05;62.57
35694;BME280;21812;55.536;37.664;2024-03-17T03:17:00;99944.78;;;-0.04;62.80
35694;BME280;21812;55.536;37.664;2024-03-17T03:19:26;99951.59;;;-0.01;63.04
35694;BME280;21812;55.536;37.664;2024-03-17T03:21:53;99951.00;;;0.07;62.67
35694;BME280;21812;55.536;37.664;2024-03-17T03:24:19;99939.78;;;0.05;62.70
35694;BME280;21812;55.536;37.664;2024-03-17T03:26:44;99943.50;;;0.02;62.56
35694;BME280;21812;55.536;37.664;2024-03-17T03:29:11;99944.31;;;0.03;62.91
35694;BME280;21812;55.536;37.664;2024-03-17T03:31:37;99942.50;;;-0.08;62.61
35694;BME280;21812;55.536;37.664;2024-03-17T03:34:06;99928.31;;;-0.17;62.47
35694;BME280;21812;55.536;37.664;2024-03-17T03:36:35;99933.31;;;-0.14;63.35
35694;BME280;21812;55.536;37.664;2024-03-17T03:39:03;99925.78;;;-0.18;63.65
35694;BME280;21812;55.536;37.664;2024-03-17T03:41:30;99925.44;;;-0.14;63.48
35694;BME280;21812;55.536;37.664;2024-03-17T03:43:58;99923.78;;;-0.15;63.38
35694;BME280;21812;55.536;37.664;2024-03-17T03:46:23;99925.91;;;-0.09;63.62
35694;BME280;21812;55.536;37.664;2024-03-17T03:48:49;99930.09;;;-0.06;63.42
35694;BME280;21812;55.536;37.664;2024-03-17T03:51:15;99924.94;;;-0.08;62.54
35694;BME280;21812;55.536;37.664;2024-03-17T03:53:40;99927.84;;;-0.11;62.25
35694;BME280;21812;55.536;37.664;2024-03-17T03:56:08;99929.75;;;-0.13;62.51
35694;BME280;21812;55.536;37.664;2024-03-17T03:58:37;99916.34;;;-0.21;63.13
35694;BME280;21812;55.536;37.664;2024-03-17T04:01:04;99935.94;;;-0.14;62.65
35694;BME280;21812;55.536;37.664;2024-03-17T04:03:31;99933.41;;;-0.15;63.03
35694;BME280;21812;55.536;37.664;2024-03-17T04:06:08;99939.53;;;-0.04;63.75
35694;BME280;21812;55.536;37.664;2024-03-17T04:08:37;99932.13;;;0.02;63.40
35694;BME280;21812;55.536;37.664;2024-03-17T04:11:07;99921.16;;;-0.04;62.98
35694;BME280;21812;55.536;37.664;2024-03-17T04:13:33;99931.78;;;0.06;63.15
35694;BME280;21812;55.536;37.664;2024-03-17T04:16:00;99921.19;;;0.08;63.23
35694;BME280;21812;55.536;37.664;2024-03-17T04:18:27;99916.66;;;0.21;62.92
35694;BME280;21812;55.536;37.664;2024-03-17T04:20:57;99923.09;;;0.28;62.54
35694;BME280;21812;55.536;37.664;2024-03-17T04:23:23;99927.88;;;0.23;62.36
35694;BME280;21812;55.536;37.664;2024-03-17T04:25:50;99882.00;;;-0.07;62.44
35694;BME280;21812;55.536;37.664;2024-03-17T04:28:17;99913.16;;;0.21;62.64
35694;BME280;21812;55.536;37.664;2024-03-17T04:30:43;99926.31;;;0.21;62.36
35694;BME280;21812;55.536;37.664;2024-03-17T04:33:12;99924.16;;;0.14;63.05
35694;BME280;21812;55.536;37.664;2024-03-17T04:35:39;99924.75;;;0.07;63.22
35694;BME280;21812;55.536;37.664;2024-03-17T04:38:05;99912.56;;;-0.06;63.45
35694;BME280;21812;55.536;37.664;2024-03-17T04:40:43;99927.38;;;0.07;63.86
35694;BME280;21812;55.536;37.664;2024-03-17T04:43:09;99926.44;;;0.08;63.51
35694;BME280;21812;55.536;37.664;2024-03-17T04:45:35;99927.88;;;0.12;63.54
35694;BME280;21812;55.536;37.664;2024-03-17T04:48:01;99925.97;;;0.14;63.35
35694;BME280;21812;55.536;37.664;2024-03-17T04:50:27;99926.41;;;0.19;63.35
35694;BME280;21812;55.536;37.664;2024-03-17T04:53:01;99924.88;;;0.28;63.30
35694;BME280;21812;55.536;37.664;2024-03-17T04:55:27;99928.59;;;0.25;63.03
35694;BME280;21812;55.536;37.664;2024-03-17T04:57:52;99925.59;;;0.30;63.25
35694;BME280;21812;55.536;37.664;2024-03-17T05:00:18;99927.50;;;0.28;63.24
35694;BME280;21812;55.536;37.664;2024-03-17T05:02:45;99924.78;;;0.29;63.28
35694;BME280;21812;55.536;37.664;2024-03-17T05:05:11;99916.41;;;0.24;62.99
35694;BME280;21812;55.536;37.664;2024-03-17T05:07:37;99930.75;;;0.31;63.07
35694;BME280;21812;55.536;37.664;2024-03-17T05:10:04;99917.81;;;0.28;63.19
35694;BME280;21812;55.536;37.664;2024-03-17T05:12:31;99926.19;;;0.33;62.91
35694;BME280;21812;55.536;37.664;2024-03-17T05:14:57;99932.88;;;0.37;62.97
35694;BME280;21812;55.536;37.664;2024-03-17T05:17:23;99939.81;;;0.38;63.15
35694;BME280;21812;55.536;37.664;2024-03-17T05:19:48;99929.66;;;0.45;62.91
35694;BME280;21812;55.536;37.664;2024-03-17T05:22:14;99935.03;;;0.55;62.72
35694;BME280;21812;55.536;37.664;2024-03-17T05:24:39;99929.88;;;0.65;62.50
35694;BME280;21812;55.536;37.664;2024-03-17T05:27:05;99933.09;;;0.68;61.80
35694;BME280;21812;55.536;37.664;2024-03-17T05:29:31;99929.16;;;0.63;62.10
35694;BME280;21812;55.536;37.664;2024-03-17T05:31:57;99924.97;;;0.71;62.24
35694;BME280;21812;55.536;37.664;2024-03-17T05:34:23;99919.94;;;0.80;62.12
35694;BME280;21812;55.536;37.664;2024-03-17T05:36:52;99911.81;;;0.83;61.83
35694;BME280;21812;55.536;37.664;2024-03-17T05:39:18;99922.56;;;0.80;61.55
35694;BME280;21812;55.536;37.664;2024-03-17T05:41:45;99927.69;;;0.92;61.59
35694;BME280;21812;55.536;37.664;2024-03-17T05:44:15;99923.25;;;0.93;61.35
35694;BME280;21812;55.536;37.664;2024-03-17T05:46:41;99928.03;;;0.99;61.34
35694;BME280;21812;55.536;37.664;2024-03-17T05:49:07;99928.72;;;1.12;61.23
35694;BME280;21812;55.536;37.664;2024-03-17T05:51:33;99919.28;;;1.10;60.97
35694;BME280;21812;55.536;37.664;2024-03-17T05:53:59;99927.25;;;1.20;61.08
35694;BME280;21812;55.536;37.664;2024-03-17T05:56:24;99927.63;;;1.47;60.22
35694;BME280;21812;55.536;37.664;2024-03-17T05:58:50;99928.28;;;1.61;59.42
35694;BME280;21812;55.536;37.664;2024-03-17T06:01:16;99926.81;;;1.68;59.04
35694;BME280;21812;55.536;37.664;2024-03-17T06:03:42;99935.31;;;1.71;59.14
35694;BME280;21812;55.536;37.664;2024-03-17T06:06:08;99922.69;;;1.75;58.66
35694;BME280;21812;55.536;37.664;2024-03-17T06:08:37;99923.91;;;1.71;59.10
35694;BME280;21812;55.536;37.664;2024-03-17T06:11:05;99922.69;;;1.75;59.17
35694;BME280;21812;55.536;37.664;2024-03-17T06:13:31;99918.13;;;1.77;59.00
35694;BME280;21812;55.536;37.664;2024-03-17T06:15:57;99917.50;;;1.85;58.57
35694;BME280;21812;55.536;37.664;2024-03-17T06:18:27;99909.03;;;1.81;58.46
35694;BME280;21812;55.536;37.664;2024-03-17T06:20:53;99926.88;;;1.99;58.92
35694;BME280;21812;55.536;37.664;2024-03-17T06:23:19;99912.78;;;2.09;58.27
35694;BME280;21812;55.536;37.664;2024-03-17T06:25:48;99916.75;;;2.25;58.15
35694;BME280;21812;55.536;37.664;2024-03-17T06:28:16;99868.97;;;2.08;57.47
35694;BME280;21812;55.536;37.664;2024-03-17T06:30:53;99912.53;;;2.53;57.25
35694;BME280;21812;55.536;37.664;2024-03-17T06:33:20;99918.22;;;2.48;57.50
35694;BME280;21812;55.536;37.664;2024-03-17T06:35:46;99903.63;;;2.34;57.92
35694;BME280;21812;55.536;37.664;2024-03-17T06:38:13;99911.25;;;2.38;58.20
35694;BME280;21812;55.536;37.664;2024-03-17T06:40:39;99906.75;;;2.28;57.67
35694;BME280;21812;55.536;37.664;2024-03-17T06:43:05;99906.06;;;2.26;57.98
35694;BME280;21812;55.536;37.664;2024-03-17T06:45:32;99899.84;;;2.27;58.20
35694;BME280;21812;55.536;37.664;2024-03-17T06:47:58;99897.50;;;2.34;57.97
35694;BME280;21812;55.536;37.664;2024-03-17T06:50:23;99900.19;;;2.44;57.73
35694;BME280;21812;55.536;37.664;2024-03-17T06:52:49;99902.28;;;2.50;57.85
35694;BME280;21812;55.536;37.664;2024-03-17T06:55:18;99901.06;;;2.54;57.76
35694;BME280;21812;55.536;37.664;2024-03-17T06:57:44;99904.31;;;2.77;57.76
35694;BME280;21812;55.536;37.664;2024-03-17T07:00:11;99883.78;;;2.81;57.68
35694;BME280;21812;55.536;37.664;2024-03-17T07:02:40;99900.31;;;3.02;57.50
35694;BME280;21812;55.536;37.664;2024-03-17T07:05:07;99899.75;;;3.08;57.18
35694;BME280;21812;55.536;37.664;2024-03-17T07:07:33;99885.91;;;3.16;57.28
35694;BME280;21812;55.536;37.664;2024-03-17T07:09:59;99884.22;;;3.25;56.67
35694;BME280;21812;55.536;37.664;2024-03-17T07:12:30;99882.97;;;3.29;56.71
35694;BME280;21812;55.536;37.664;2024-03-17T07:14:56;99877.00;;;3.27;56.88
35694;BME280;21812;55.536;37.664;2024-03-17T07:17:22;99881.03;;;3.31;56.95
35694;BME280;21812;55.536;37.664;2024-03-17T07:19:48;99878.94;;;3.44;56.97
35694;BME280;21812;55.536;37.664;2024-03-17T07:22:14;99885.59;;;3.58;56.86
35694;BME280;21812;55.536;37.664;2024-03-17T07:24:40;99882.66;;;3.71;56.79
35694;BME280;21812;55.536;37.664;2024-03-17T07:27:06;99885.81;;;3.84;56.78
35694;BME280;21812;55.536;37.664;2024-03-17T07:29:35;99885.81;;;3.94;56.15
35694;BME280;21812;55.536;37.664;2024-03-17T07:32:01;99884.38;;;4.00;56.05
35694;BME280;21812;55.536;37.664;2024-03-17T07:34:30;99867.47;;;3.92;56.33
35694;BME280;21812;55.536;37.664;2024-03-17T07:36:56;99849.66;;;3.95;56.13
35694;BME280;21812;55.536;37.664;2024-03-17T07:39:22;99835.28;;;4.07;55.47
35694;BME280;21812;55.536;37.664;2024-03-17T07:41:47;99868.69;;;4.36;55.01
35694;BME280;21812;55.536;37.664;2024-03-17T07:44:13;99876.41;;;4.47;54.54
35694;BME280;21812;55.536;37.664;2024-03-17T07:46:39;99874.72;;;4.56;54.82
35694;BME280;21812;55.536;37.664;2024-03-17T07:49:04;99869.13;;;4.59;54.85
35694;BME280;21812;55.536;37.664;2024-03-17T07:51:32;99854.31;;;4.48;54.75
35694;BME280;21812;55.536;37.664;2024-03-17T07:53:59;99863.44;;;4.54;54.79
35694;BME280;21812;55.536;37.664;2024-03-17T07:56:25;99861.72;;;4.62;55.44
35694;BME280;21812;55.536;37.664;2024-03-17T07:58:51;99866.81;;;4.74;55.16
35694;BME280;21812;55.536;37.664;2024-03-17T08:01:16;99857.28;;;4.81;55.20
35694;BME280;21812;55.536;37.664;2024-03-17T08:03:45;99800.41;;;4.49;54.83
35694;BME280;21812;55.536;37.664;2024-03-17T08:06:12;99867.59;;;4.84;54.89
35694;BME280;21812;55.536;37.664;2024-03-17T08:08:38;99829.69;;;4.65;55.15
35694;BME280;21812;55.536;37.664;2024-03-17T08:11:04;99852.75;;;4.91;55.15
35694;BME280;21812;55.536;37.664;2024-03-17T08:13:30;99851.28;;;5.06;54.91
35694;BME280;21812;55.536;37.664;2024-03-17T08:16:01;99779.59;;;4.82;57.19
35694;BME280;21812;55.536;37.664;2024-03-17T08:18:28;99840.81;;;5.93;54.83
35694;BME280;21812;55.536;37.664;2024-03-17T08:20:54;99852.84;;;7.15;55.12
35694;BME280;21812;55.536;37.664;2024-03-17T08:23:20;99834.06;;;7.74;51.90
35694;BME280;21812;55.536;37.664;2024-03-17T08:25:56;99838.81;;;8.59;50.19
35694;BME280;21812;55.536;37.664;2024-03-17T08:28:23;99833.94;;;8.94;47.96
35694;BME280;21812;55.536;37.664;2024-03-17T08:30:59;99826.00;;;8.86;47.51
35694;BME280;21812;55.536;37.664;2024-03-17T08:33:26;99828.84;;;9.31;51.85
35694;BME280;21812;55.536;37.664;2024-03-17T08:35:56;99821.84;;;9.53;45.33
35694;BME280;21812;55.536;37.664;2024-03-17T08:38:22;99814.63;;;9.38;45.95
35694;BME280;21812;55.536;37.664;2024-03-17T08:40:52;99820.09;;;9.60;48.54
35694;BME280;21812;55.536;37.664;2024-03-17T08:43:19;99819.50;;;10.32;47.52
35694;BME280;21812;55.536;37.664;2024-03-17T08:45:45;99822.31;;;10.61;44.20
35694;BME280;21812;55.536;37.664;2024-03-17T08:48:11;99789.50;;;10.15;45.41
35694;BME280;21812;55.536;37.664;2024-03-17T08:50:37;99819.03;;;10.59;46.01
35694;BME280;21812;55.536;37.664;2024-03-17T08:53:03;99810.28;;;11.29;50.62
35694;BME280;21812;55.536;37.664;2024-03-17T08:55:28;99791.13;;;11.54;45.46
35694;BME280;21812;55.536;37.664;2024-03-17T08:57:54;99796.59;;;11.67;48.41
35694;BME280;21812;55.536;37.664;2024-03-17T09:00:20;99782.06;;;11.83;47.36
35694;BME280;21812;55.536;37.664;2024-03-17T09:02:45;99791.28;;;12.64;48.52
35694;BME280;21812;55.536;37.664;2024-03-17T09:05:11;99787.56;;;12.51;40.08
35694;BME280;21812;55.536;37.664;2024-03-17T09:07:40;99786.06;;;13.51;49.38
35694;BME280;21812;55.536;37.664;2024-03-17T09:10:06;99791.84;;;13.67;41.42
35694;BME280;21812;55.536;37.664;2024-03-17T09:12:32;99798.34;;;12.78;38.86
35694;BME280;21812;55.536;37.664;2024-03-17T09:14:57;99789.50;;;12.78;42.00
35694;BME280;21812;55.536;37.664;2024-03-17T09:17:23;99787.06;;;13.09;42.94
35694;BME280;21812;55.536;37.664;2024-03-17T09:19:49;99791.00;;;13.80;45.09
35694;BME280;21812;55.536;37.664;2024-03-17T09:22:14;99775.66;;;14.01;39.76
35694;BME280;21812;55.536;37.664;2024-03-17T09:24:40;99784.78;;;13.80;41.97
35694;BME280;21812;55.536;37.664;2024-03-17T09:27:09;99782.44;;;14.10;41.57
35694;BME280;21812;55.536;37.664;2024-03-17T09:29:36;99777.50;;;14.07;41.28
35694;BME280;21812;55.536;37.664;2024-03-17T09:32:01;99778.53;;;14.13;41.44
35694;BME280;21812;55.536;37.664;2024-03-17T09:34:28;99787.91;;;14.35;39.90
35694;BME280;21812;55.536;37.664;2024-03-17T09:36:53;99775.69;;;13.94;37.72
35694;BME280;21812;55.536;37.664;2024-03-17T09:39:19;99790.28;;;14.12;41.01
35694;BME280;21812;55.536;37.664;2024-03-17T09:41:46;99768.63;;;14.52;40.52
35694;BME280;21812;55.536;37.664;2024-03-17T09:44:12;99792.00;;;14.51;36.13
35694;BME280;21812;55.536;37.664;2024-03-17T09:46:41;99784.81;;;13.73;37.17
35694;BME280;21812;55.536;37.664;2024-03-17T09:49:15;99779.25;;;13.75;40.63
35694;BME280;21812;55.536;37.664;2024-03-17T09:51:43;99775.22;;;14.56;41.23
35694;BME280;21812;55.536;37.664;2024-03-17T09:54:17;99778.06;;;15.06;39.00
35694;BME280;21812;55.536;37.664;2024-03-17T09:56:44;99761.56;;;15.71;38.23
35694;BME280;21812;55.536;37.664;2024-03-17T09:59:10;99761.31;;;16.16;37.14
35694;BME280;21812;55.536;37.664;2024-03-17T10:01:36;99761.53;;;15.96;36.63
35694;BME280;21812;55.536;37.664;2024-03-17T10:04:02;99741.56;;;15.60;37.13
35694;BME280;21812;55.536;37.664;2024-03-17T10:06:32;99768.84;;;15.20;36.39
35694;BME280;21812;55.536;37.664;2024-03-17T10:09:01;99777.09;;;14.55;34.97
35694;BME280;21812;55.536;37.664;2024-03-17T10:11:38;99770.56;;;13.79;38.74
35694;BME280;21812;55.536;37.664;2024-03-17T10:14:08;99776.97;;;13.72;37.11
35694;BME280;21812;55.536;37.664;2024-03-17T10:16:38;99770.38;;;13.14;37.40
35694;BME280;21812;55.536;37.664;2024-03-17T10:19:22;99771.59;;;13.18;42.64
35694;BME280;21812;55.536;37.664;2024-03-17T10:21:48;99762.38;;;14.26;40.60
35694;BME280;21812;55.536;37.664;2024-03-17T10:24:19;99756.63;;;14.61;38.19
35694;BME280;21812;55.536;37.664;2024-03-17T10:26:54;99751.38;;;13.69;35.92
35694;BME280;21812;55.536;37.664;2024-03-17T10:31:58;99762.31;;;13.01;38.16
35694;BME280;21812;55.536;37.664;2024-03-17T10:34:26;99759.84;;;13.19;38.91
35694;BME280;21812;55.536;37.664;2024-03-17T10:39:38;99755.50;;;13.25;38.43
35694;BME280;21812;55.536;37.664;2024-03-17T10:42:06;99750.53;;;12.88;40.61
35694;BME280;21812;55.536;37.664;2024-03-17T10:44:34;99743.09;;;13.77;41.81
35694;BME280;21812;55.536;37.664;2024-03-17T10:47:01;99740.69;;;13.42;37.53
35694;BME280;21812;55.536;37.664;2024-03-17T10:49:30;99747.50;;;13.45;38.13
35694;BME280;21812;55.536;37.664;2024-03-17T10:52:06;99745.16;;;13.68;37.64
35694;BME280;21812;55.536;37.664;2024-03-17T10:54:34;99746.66;;;14.23;40.31
35694;BME280;21812;55.536;37.664;2024-03-17T11:00:04;99711.00;;;14.02;37.70
35694;BME280;21812;55.536;37.664;2024-03-17T11:02:32;99745.63;;;13.52;37.00
35694;BME280;21812;55.536;37.664;2024-03-17T11:05:03;99740.28;;;13.32;39.82
35694;BME280;21812;55.536;37.664;2024-03-17T11:07:32;99745.72;;;12.50;39.66
35694;BME280;21812;55.536;37.664;2024-03-17T11:10:04;99750.72;;;12.05;39.24
35694;BME280;21812;55.536;37.664;2024-03-17T11:17:54;99745.44;;;12.19;39.04
35694;BME280;21812;55.536;37.664;2024-03-17T11:20:25;99711.34;;;11.58;40.95
35694;BME280;21812;55.536;37.664;2024-03-17T11:22:52;99733.69;;;12.13;43.25
35694;BME280;21812;55.536;37.664;2024-03-17T11:25:42;99751.56;;;12.12;40.30
35694;BME280;21812;55.536;37.664;2024-03-17T11:31:47;99743.00;;;12.30;43.47
35694;BME280;21812;55.536;37.664;2024-03-17T11:34:32;99715.31;;;12.10;39.72
35694;BME280;21812;55.536;37.664;2024-03-17T11:36:58;99737.50;;;11.97;41.14
35694;BME280;21812;55.536;37.664;2024-03-17T11:39:47;99741.47;;;11.73;42.17
35694;BME280;21812;55.536;37.664;2024-03-17T11:42:15;99739.06;;;11.22;41.16
35694;BME280;21812;55.536;37.664;2024-03-17T11:44:43;99731.28;;;10.77;41.89
35694;BME280;21812;55.536;37.664;2024-03-17T11:47:08;99732.50;;;10.74;42.64
35694;BME280;21812;55.536;37.664;2024-03-17T11:49:39;99742.31;;;10.52;43.40
35694;BME280;21812;55.536;37.664;2024-03-17T11:52:15;99746.31;;;10.42;43.93
35694;BME280;21812;55.536;37.664;2024-03-17T11:54:43;99749.41;;;9.94;43.65
35694;BME280;21812;55.536;37.664;2024-03-17T11:59:36;99742.31;;;9.56;46.94
35694;BME280;21812;55.536;37.664;2024-03-17T12:02:18;99726.59;;;9.76;44.97
35694;BME280;21812;55.536;37.664;2024-03-17T12:04:44;99738.75;;;9.79;44.89
35694;BME280;21812;55.536;37.664;2024-03-17T12:07:13;99702.22;;;9.79;45.61
35694;BME280;21812;55.536;37.664;2024-03-17T12:09:41;99732.91;;;10.35;45.23
35694;BME280;21812;55.536;37.664;2024-03-17T12:12:17;99734.44;;;10.29;44.71
35694;BME280;21812;55.536;37.664;2024-03-17T12:14:43;99729.19;;;10.00;45.11
35694;BME280;21812;55.536;37.664;2024-03-17T12:17:11;99742.69;;;9.98;46.31
35694;BME280;21812;55.536;37.664;2024-03-17T12:19:37;99737.59;;;10.33;48.36
35694;BME280;21812;55.536;37.664;2024-03-17T12:22:04;99737.81;;;10.02;44.96
35694;BME280;21812;55.536;37.664;2024-03-17T12:24:32;99705.88;;;10.08;45.74
35694;BME280;21812;55.536;37.664;2024-03-17T12:26:59;99735.50;;;10.13;44.31
35694;BME280;21812;55.536;37.664;2024-03-17T12:29:30;99736.88;;;10.09;46.15
35694;BME280;21812;55.536;37.664;2024-03-17T12:32:00;99713.41;;;10.05;48.52
35694;BME280;21812;55.536;37.664;2024-03-17T12:34:32;99746.19;;;9.84;44.88
35694;BME280;21812;55.536;37.664;2024-03-17T12:36:58;99739.91;;;9.76;51.62
35694;BME280;21812;55.536;37.664;2024-03-17T12:42:04;99737.06;;;10.08;53.10
35694;BME280;21812;55.536;37.664;2024-03-17T12:44:34;99729.69;;;10.10;47.70
35694;BME280;21812;55.536;37.664;2024-03-17T12:47:04;99731.63;;;10.31;50.64
35694;BME280;21812;55.536;37.664;2024-03-17T12:49:32;99722.44;;;10.18;47.52
35694;BME280;21812;55.536;37.664;2024-03-17T12:51:58;99717.44;;;10.15;45.68
35694;BME280;21812;55.536;37.664;2024-03-17T12:54:26;99727.25;;;10.30;45.07
35694;BME280;21812;55.536;37.664;2024-03-17T12:57:03;99713.34;;;10.71;47.26
35694;BME280;21812;55.536;37.664;2024-03-17T12:59:47;99715.88;;;10.79;46.20
35694;BME280;21812;55.536;37.664;2024-03-17T13:02:32;99718.56;;;11.01;46.15
35694;BME280;21812;55.536;37.664;2024-03-17T13:05:10;99722.16;;;11.78;62.75
35694;BME280;21812;55.536;37.664;2024-03-17T13:07:39;99714.22;;;11.56;45.52
35694;BME280;21812;55.536;37.664;2024-03-17T13:10:05;99710.63;;;11.14;43.60
35694;BME280;21812;55.536;37.664;2024-03-17T13:12:36;99701.59;;;10.29;46.36
35694;BME280;21812;55.536;37.664;2024-03-17T13:15:02;99711.31;;;10.51;54.39
35694;BME280;21812;55.536;37.664;2024-03-17T13:17:30;99703.81;;;10.62;46.23
35694;BME280;21812;55.536;37.664;2024-03-17T13:19:58;99699.66;;;10.81;57.15